Time;durP1;ratioP1;P1;durP2;ratioP2;P2;SDS_P1;SDS_P2;PMS_P1;PMS_P2;Temp;Humidity;BMP_temperature;BMP_pressure;BME280_temperature;BME280_humidity;BME280_pressure;Samples;Min_cycle;Max_cycle;Signal;HPM_P1;HPM_P2
2021/01/11 00:02:13;;;;;;;21.00;13.40;;;;;;;;;;5074583;28;20189;-86
2021/01/11 00:04:40;;;;;;;17.87;11.60;;;;;;;;;;5074444;28;20193;-86
2021/01/11 00:07:07;;;;;;;17.20;11.50;;;;;;;;;;5074419;28;20167;-86
2021/01/11 00:09:32;;;;;;;17.77;11.33;;;;;;;;;;5074378;28;20687;-86
2021/01/11 00:11:58;;;;;;;17.10;10.30;;;;;;;;;;5074828;28;20171;-86
2021/01/11 00:14:23;;;;;;;17.90;10.60;;;;;;;;;;5074619;28;20168;-86
2021/01/11 00:16:48;;;;;;;16.27;10.20;;;;;;;;;;5074854;28;20529;-86
2021/01/11 00:19:14;;;;;;;16.33;10.50;;;;;;;;;;5073258;28;20229;-86
2021/01/11 00:21:39;;;;;;;13.10;8.43;;;;;;;;;;5074074;28;20203;-86
2021/01/11 00:24:04;;;;;;;18.00;11.57;;;;;;;;;;5074134;28;20176;-86
2021/01/11 00:26:30;;;;;;;16.67;9.67;;;;;;;;;;5074569;28;20171;-86
2021/01/11 00:28:55;;;;;;;18.20;10.57;;;;;;;;;;5074016;28;20201;-86
2021/01/11 00:31:23;;;;;;;12.60;8.63;;;;;;;;;;5073930;28;20175;-86
2021/01/11 00:33:49;;;;;;;15.17;9.67;;;;;;;;;;5073877;28;20194;-86
2021/01/11 00:36:14;;;;;;;13.33;9.27;;;;;;;;;;5074196;28;20569;-87
2021/01/11 00:38:40;;;;;;;15.50;9.60;;;;;;;;;;5074144;28;20520;-86
2021/01/11 00:41:05;;;;;;;13.40;7.93;;;;;;;;;;5074357;28;20199;-86
2021/01/11 00:43:30;;;;;;;11.53;7.83;;;;;;;;;;5074044;28;20167;-86
2021/01/11 00:45:55;;;;;;;10.20;7.47;;;;;;;;;;5073984;28;20172;-86
2021/01/11 00:48:21;;;;;;;10.67;7.70;;;;;;;;;;5073861;28;20719;-86
2021/01/11 00:50:46;;;;;;;9.77;7.50;;;;;;;;;;5073980;28;20171;-86
2021/01/11 00:53:11;;;;;;;10.20;7.37;;;;;;;;;;5073474;28;20637;-86
2021/01/11 00:55:37;;;;;;;11.23;7.60;;;;;;;;;;5074035;28;20644;-87
2021/01/11 00:58:02;;;;;;;10.17;7.00;;;;;;;;;;5073509;28;20181;-86
2021/01/11 01:00:27;;;;;;;9.57;7.27;;;;;;;;;;5073505;28;20281;-86
2021/01/11 01:02:53;;;;;;;16.03;10.50;;;;;;;;;;5073718;28;20254;-86
2021/01/11 01:05:18;;;;;;;21.83;12.80;;;;;;;;;;5073638;28;20175;-87
2021/01/11 01:07:44;;;;;;;18.07;11.43;;;;;;;;;;5073824;28;20171;-87
2021/01/11 01:10:12;;;;;;;14.83;10.07;;;;;;;;;;5072980;28;20206;-87
2021/01/11 01:12:37;;;;;;;22.30;13.93;;;;;;;;;;5073496;28;20170;-87
2021/01/11 01:15:04;;;;;;;19.03;10.60;;;;;;;;;;5073441;28;20167;-87
2021/01/11 01:17:29;;;;;;;19.73;12.63;;;;;;;;;;5073164;28;20172;-87
2021/01/11 01:19:55;;;;;;;15.17;11.37;;;;;;;;;;5072990;28;20206;-87
2021/01/11 01:22:20;;;;;;;13.37;10.17;;;;;;;;;;5071884;28;20621;-88
2021/01/11 01:24:45;;;;;;;15.80;11.13;;;;;;;;;;5073335;28;20166;-87
2021/01/11 01:27:10;;;;;;;16.17;11.60;;;;;;;;;;5072923;28;20622;-87
2021/01/11 01:29:36;;;;;;;16.90;10.77;;;;;;;;;;5072988;28;20255;-87
2021/01/11 01:32:01;;;;;;;16.07;11.13;;;;;;;;;;5072790;28;20529;-87
2021/01/11 01:34:26;;;;;;;21.17;13.50;;;;;;;;;;5071870;28;20241;-87
2021/01/11 01:36:52;;;;;;;16.13;10.73;;;;;;;;;;5073155;28;20167;-87
2021/01/11 01:39:17;;;;;;;17.57;12.00;;;;;;;;;;5073089;28;20233;-86
2021/01/11 01:41:44;;;;;;;14.10;10.03;;;;;;;;;;5072724;28;20248;-86
2021/01/11 01:44:10;;;;;;;14.50;10.57;;;;;;;;;;5073297;28;20201;-86
2021/01/11 01:46:35;;;;;;;14.27;10.27;;;;;;;;;;5072607;28;20171;-87
2021/01/11 01:49:00;;;;;;;14.70;10.30;;;;;;;;;;5072787;28;20275;-86
2021/01/11 01:51:26;;;;;;;17.13;12.37;;;;;;;;;;5072966;28;20199;-87
2021/01/11 01:53:51;;;;;;;19.53;12.57;;;;;;;;;;5073205;28;20186;-87
2021/01/11 01:56:17;;;;;;;19.10;11.90;;;;;;;;;;5072861;28;20609;-86
2021/01/11 01:58:43;;;;;;;15.63;10.20;;;;;;;;;;5072869;28;20195;-87
2021/01/11 02:01:08;;;;;;;16.77;12.20;;;;;;;;;;5072643;28;20239;-87
2021/01/11 02:03:34;;;;;;;23.37;14.67;;;;;;;;;;5073229;28;20175;-86
2021/01/11 02:05:59;;;;;;;20.60;13.33;;;;;;;;;;5072625;28;20659;-87
2021/01/11 02:08:30;;;;;;;19.70;13.73;;;;;;;;;;5072858;28;20167;-87
2021/01/11 02:11:09;;;;;;;16.83;11.77;;;;;;;;;;5072869;28;20163;-87
2021/01/11 02:13:34;;;;;;;17.67;13.93;;;;;;;;;;5072849;28;20253;-87
2021/01/11 02:16:00;;;;;;;17.90;12.73;;;;;;;;;;5072475;28;20804;-87
2021/01/11 02:18:34;;;;;;;20.77;14.17;;;;;;;;;;5072968;28;20167;-87
2021/01/11 02:21:07;;;;;;;20.10;14.70;;;;;;;;;;5072604;28;20202;-87
2021/01/11 02:24:10;;;;;;;19.60;14.33;;;;;;;;;;5076280;28;20159;-87
2021/01/11 02:26:44;;;;;;;20.67;13.17;;;;;;;;;;4994758;28;20323;-87
2021/01/11 02:29:20;;;;;;;19.13;13.07;;;;;;;;;;4994843;28;20200;-87
2021/01/11 02:31:47;;;;;;;19.90;13.30;;;;;;;;;;5042817;28;20193;-87
2021/01/11 02:34:13;;;;;;;17.30;12.10;;;;;;;;;;5076535;28;20171;-87
2021/01/11 02:36:39;;;;;;;19.57;12.03;;;;;;;;;;5076502;28;20673;-87
2021/01/11 02:39:04;;;;;;;17.00;12.57;;;;;;;;;;5076196;28;20175;-87
2021/01/11 02:41:29;;;;;;;20.70;13.50;;;;;;;;;;5076058;28;20668;-87
2021/01/11 02:43:55;;;;;;;18.90;13.87;;;;;;;;;;5076393;28;20171;-88
2021/01/11 02:46:20;;;;;;;21.20;13.83;;;;;;;;;;5076241;28;20172;-87
2021/01/11 02:48:48;;;;;;;19.10;13.50;;;;;;;;;;5076012;28;20167;-87
2021/01/11 02:51:21;;;;;;;21.20;13.97;;;;;;;;;;5075911;28;20179;-88
2021/01/11 02:53:49;;;;;;;20.33;13.43;;;;;;;;;;5075822;28;20261;-87
2021/01/11 02:56:19;;;;;;;21.40;14.33;;;;;;;;;;5076309;28;20183;-87
2021/01/11 02:58:49;;;;;;;22.63;14.87;;;;;;;;;;5076125;28;20181;-87
2021/01/11 03:01:16;;;;;;;21.00;14.37;;;;;;;;;;5075570;28;20241;-87
2021/01/11 03:03:43;;;;;;;19.63;14.03;;;;;;;;;;5075919;28;20644;-87
2021/01/11 03:06:12;;;;;;;22.93;16.03;;;;;;;;;;5075900;28;20193;-86
2021/01/11 03:08:37;;;;;;;20.53;14.27;;;;;;;;;;5075825;28;20173;-87
2021/01/11 03:11:02;;;;;;;23.73;15.30;;;;;;;;;;5075991;28;20622;-87
2021/01/11 03:13:28;;;;;;;24.53;16.47;;;;;;;;;;5075420;28;20167;-87
2021/01/11 03:15:53;;;;;;;25.13;16.57;;;;;;;;;;5075463;28;20921;-88
2021/01/11 03:18:18;;;;;;;24.27;15.20;;;;;;;;;;5075364;28;20518;-87
2021/01/11 03:20:43;;;;;;;20.60;14.33;;;;;;;;;;5075566;28;20649;-87
2021/01/11 03:23:09;;;;;;;21.60;14.77;;;;;;;;;;5075530;28;20266;-87
2021/01/11 03:25:34;;;;;;;20.63;13.83;;;;;;;;;;5075556;28;20174;-87
2021/01/11 03:27:59;;;;;;;20.73;13.87;;;;;;;;;;5075101;28;20212;-87
2021/01/11 03:30:25;;;;;;;23.40;14.20;;;;;;;;;;5075222;28;20186;-87
2021/01/11 03:32:51;;;;;;;21.90;14.37;;;;;;;;;;5075203;28;20229;-87
2021/01/11 03:35:16;;;;;;;21.40;13.70;;;;;;;;;;5074066;28;20692;-87
2021/01/11 03:37:42;;;;;;;26.33;15.10;;;;;;;;;;5075134;28;20262;-87
2021/01/11 03:40:07;;;;;;;20.30;13.77;;;;;;;;;;5075254;28;20195;-87
2021/01/11 03:42:36;;;;;;;20.17;13.97;;;;;;;;;;5075011;28;20180;-87
2021/01/11 03:45:02;;;;;;;22.67;14.43;;;;;;;;;;5073882;28;20179;-87
2021/01/11 03:47:27;;;;;;;21.07;14.33;;;;;;;;;;5075034;28;20167;-88
2021/01/11 03:49:53;;;;;;;24.27;16.03;;;;;;;;;;5075110;28;20602;-87
2021/01/11 03:52:18;;;;;;;29.33;18.27;;;;;;;;;;5075024;28;20282;-87
2021/01/11 03:54:44;;;;;;;29.90;19.73;;;;;;;;;;5074778;28;20254;-87
2021/01/11 03:57:09;;;;;;;36.40;22.23;;;;;;;;;;5074910;28;20183;-87
2021/01/11 03:59:34;;;;;;;34.00;21.47;;;;;;;;;;5074860;28;20168;-88
2021/01/11 04:01:59;;;;;;;36.03;21.03;;;;;;;;;;5074876;28;20790;-87
2021/01/11 04:04:25;;;;;;;30.13;19.50;;;;;;;;;;5074897;28;20179;-87
2021/01/11 04:06:52;;;;;;;31.07;19.03;;;;;;;;;;5074741;28;20167;-87
2021/01/11 04:09:17;;;;;;;31.30;19.07;;;;;;;;;;5074400;28;20621;-87
2021/01/11 04:11:43;;;;;;;29.53;17.87;;;;;;;;;;5074887;28;20168;-88
2021/01/11 04:14:08;;;;;;;31.60;18.10;;;;;;;;;;5074457;28;20171;-88
2021/01/11 04:16:33;;;;;;;28.07;19.00;;;;;;;;;;5074428;28;20258;-88
2021/01/11 04:18:58;;;;;;;31.63;18.87;;;;;;;;;;5074285;28;20175;-88
2021/01/11 04:21:24;;;;;;;33.07;19.53;;;;;;;;;;5074396;28;20207;-88
2021/01/11 04:23:49;;;;;;;30.53;18.90;;;;;;;;;;5074787;28;20254;-88
2021/01/11 04:26:14;;;;;;;32.60;20.53;;;;;;;;;;5074435;28;20258;-88
2021/01/11 04:28:40;;;;;;;31.80;19.43;;;;;;;;;;5074297;28;20171;-88
2021/01/11 04:31:05;;;;;;;32.07;19.00;;;;;;;;;;5074319;28;20214;-88
2021/01/11 04:33:31;;;;;;;32.77;20.40;;;;;;;;;;5074008;28;20268;-88
2021/01/11 04:35:56;;;;;;;37.37;21.87;;;;;;;;;;5074120;28;20175;-88
2021/01/11 04:38:21;;;;;;;41.50;22.60;;;;;;;;;;5072819;28;20524;-88
2021/01/11 04:40:48;;;;;;;41.03;22.83;;;;;;;;;;5073740;28;20652;-88
2021/01/11 04:43:17;;;;;;;43.23;23.93;;;;;;;;;;5073738;28;20168;-87
2021/01/11 04:45:43;;;;;;;45.67;25.83;;;;;;;;;;5073111;28;20193;-87
2021/01/11 04:48:08;;;;;;;49.47;27.73;;;;;;;;;;5074285;28;20171;-87
2021/01/11 04:50:34;;;;;;;46.60;27.27;;;;;;;;;;5073860;28;20667;-87
2021/01/11 04:53:01;;;;;;;48.40;26.97;;;;;;;;;;5073770;28;20226;-87
2021/01/11 04:55:26;;;;;;;51.83;28.73;;;;;;;;;;5073555;28;20168;-87
2021/01/11 04:57:54;;;;;;;49.80;28.40;;;;;;;;;;5073592;28;20170;-88
2021/01/11 05:00:21;;;;;;;55.93;29.27;;;;;;;;;;5073420;28;20239;-88
2021/01/11 05:02:49;;;;;;;56.17;28.47;;;;;;;;;;5073620;28;20171;-87
2021/01/11 05:05:15;;;;;;;48.83;26.23;;;;;;;;;;5073689;28;20167;-88
2021/01/11 05:07:40;;;;;;;43.73;23.40;;;;;;;;;;5073578;28;20613;-87
2021/01/11 05:10:06;;;;;;;46.60;25.13;;;;;;;;;;5073246;28;20198;-87
2021/01/11 05:12:32;;;;;;;40.17;21.27;;;;;;;;;;5073219;28;20675;-87
2021/01/11 05:15:13;;;;;;;33.83;20.23;;;;;;;;;;5073140;28;20178;-87
2021/01/11 05:17:46;;;;;;;42.07;21.93;;;;;;;;;;5073425;28;20178;-87
2021/01/11 05:20:12;;;;;;;39.67;21.87;;;;;;;;;;5073264;28;20238;-88
2021/01/11 05:22:37;;;;;;;36.30;21.20;;;;;;;;;;5073384;28;20183;-88
2021/01/11 05:25:16;;;;;;;37.90;21.30;;;;;;;;;;5072951;28;20171;-87
2021/01/11 05:27:42;;;;;;;34.87;21.37;;;;;;;;;;5073237;28;20167;-88
2021/01/11 05:30:09;;;;;;;36.83;21.57;;;;;;;;;;5073204;28;20170;-87
2021/01/11 05:32:35;;;;;;;36.87;21.73;;;;;;;;;;5073468;28;20178;-89
2021/01/11 05:35:00;;;;;;;35.07;20.87;;;;;;;;;;5073084;28;20205;-88
2021/01/11 05:37:39;;;;;;;33.47;20.10;;;;;;;;;;5072919;28;20166;-87
2021/01/11 05:40:06;;;;;;;32.27;20.43;;;;;;;;;;5072975;28;20248;-87
2021/01/11 05:42:31;;;;;;;32.70;19.83;;;;;;;;;;5072801;28;20260;-87
2021/01/11 05:45:09;;;;;;;31.40;19.90;;;;;;;;;;5073032;28;20632;-87
2021/01/11 05:47:35;;;;;;;32.90;18.67;;;;;;;;;;5073188;28;20176;-87
2021/01/11 05:50:07;;;;;;;29.03;18.73;;;;;;;;;;5073040;28;20167;-88
2021/01/11 05:52:32;;;;;;;38.50;21.00;;;;;;;;;;5072848;28;20167;-87
2021/01/11 05:54:57;;;;;;;60.27;32.60;;;;;;;;;;5073232;28;20167;-88
2021/01/11 05:57:22;;;;;;;92.27;46.00;;;;;;;;;;5072716;28;20163;-87
2021/01/11 05:59:48;;;;;;;95.47;48.27;;;;;;;;;;5072262;28;20237;-88
2021/01/11 06:02:13;;;;;;;84.43;42.43;;;;;;;;;;5073148;28;20171;-88
2021/01/11 06:04:38;;;;;;;89.13;45.27;;;;;;;;;;5072921;28;20519;-88
2021/01/11 06:07:04;;;;;;;75.03;39.90;;;;;;;;;;5072923;28;20194;-88
2021/01/11 06:09:32;;;;;;;75.57;39.43;;;;;;;;;;5072622;28;20638;-88
2021/01/11 06:11:59;;;;;;;79.90;39.57;;;;;;;;;;5072973;28;20186;-88
2021/01/11 06:14:25;;;;;;;87.63;42.73;;;;;;;;;;5072470;28;20167;-88
2021/01/11 06:16:50;;;;;;;78.80;36.87;;;;;;;;;;5072400;28;20224;-88
2021/01/11 06:19:15;;;;;;;63.80;29.90;;;;;;;;;;5072999;28;20178;-88
2021/01/11 06:21:50;;;;;;;58.57;29.33;;;;;;;;;;5072644;28;20222;-88
2021/01/11 06:24:16;;;;;;;71.97;32.83;;;;;;;;;;5072739;28;20171;-88
2021/01/11 06:26:42;;;;;;;56.23;28.37;;;;;;;;;;5072614;28;20176;-89
2021/01/11 06:29:27;;;;;;;50.07;28.67;;;;;;;;;;5072619;28;20182;-88
2021/01/11 06:31:54;;;;;;;49.53;26.43;;;;;;;;;;5072357;28;20175;-89
2021/01/11 06:34:35;;;;;;;47.53;26.80;;;;;;;;;;5072670;28;20175;-88
2021/01/11 06:37:01;;;;;;;45.50;25.10;;;;;;;;;;5072490;28;20182;-88
2021/01/11 06:39:30;;;;;;;40.63;24.83;;;;;;;;;;5072815;28;20187;-88
2021/01/11 06:41:55;;;;;;;43.83;24.07;;;;;;;;;;5072188;28;20203;-88
2021/01/11 06:44:22;;;;;;;35.40;22.37;;;;;;;;;;5072396;28;20163;-89
2021/01/11 06:46:47;;;;;;;41.17;23.90;;;;;;;;;;5072777;28;20174;-89
2021/01/11 06:49:26;;;;;;;39.90;23.97;;;;;;;;;;5072204;28;20170;-87
2021/01/11 06:52:07;;;;;;;36.17;21.97;;;;;;;;;;5072420;28;20229;-88
2021/01/11 06:54:44;;;;;;;34.37;22.07;;;;;;;;;;5072085;28;20225;-88
2021/01/11 06:57:11;;;;;;;38.80;21.97;;;;;;;;;;5072519;28;20174;-87
2021/01/11 06:59:37;;;;;;;38.83;22.30;;;;;;;;;;5072133;28;20614;-87
2021/01/11 07:02:16;;;;;;;34.50;20.93;;;;;;;;;;5072216;28;20207;-87
2021/01/11 07:04:44;;;;;;;38.60;22.73;;;;;;;;;;5072089;28;20182;-87
2021/01/11 07:07:15;;;;;;;39.90;24.13;;;;;;;;;;5072205;28;20648;-87
2021/01/11 07:09:48;;;;;;;39.80;23.50;;;;;;;;;;5074567;28;20182;-88
2021/01/11 07:12:17;;;;;;;33.40;21.83;;;;;;;;;;5075835;28;20625;-87
2021/01/11 07:15:04;;;;;;;29.73;19.87;;;;;;;;;;5075436;28;20167;-88
2021/01/11 07:17:40;;;;;;;30.23;19.77;;;;;;;;;;5075178;28;20211;-87
2021/01/11 07:20:06;;;;;;;35.53;20.63;;;;;;;;;;5075578;28;20281;-87
2021/01/11 07:22:32;;;;;;;44.73;25.30;;;;;;;;;;5075285;28;20168;-86
2021/01/11 07:24:57;;;;;;;29.17;18.13;;;;;;;;;;5075819;28;20233;-87
2021/01/11 07:27:22;;;;;;;26.00;18.00;;;;;;;;;;5075164;28;20574;-86
2021/01/11 07:29:47;;;;;;;31.27;18.50;;;;;;;;;;5075184;28;20191;-86
2021/01/11 07:32:13;;;;;;;32.07;19.03;;;;;;;;;;5075127;28;20163;-86
2021/01/11 07:34:38;;;;;;;57.67;29.93;;;;;;;;;;5075350;28;20171;-87
2021/01/11 07:37:04;;;;;;;30.90;17.00;;;;;;;;;;5075215;28;20176;-86
2021/01/11 07:39:35;;;;;;;27.77;16.73;;;;;;;;;;5074492;28;20171;-87
2021/01/11 07:42:02;;;;;;;30.13;16.30;;;;;;;;;;5075193;28;20235;-86
2021/01/11 07:44:43;;;;;;;29.87;19.17;;;;;;;;;;5074122;28;20198;-87
2021/01/11 07:47:15;;;;;;;33.30;20.53;;;;;;;;;;5073574;28;20175;-86
2021/01/11 07:49:43;;;;;;;31.80;20.73;;;;;;;;;;5074529;28;20245;-86
2021/01/11 07:52:17;;;;;;;35.17;21.33;;;;;;;;;;5074287;28;20232;-85
2021/01/11 07:54:42;;;;;;;34.50;20.63;;;;;;;;;;5074189;28;20286;-87
2021/01/11 07:57:11;;;;;;;29.00;19.20;;;;;;;;;;5073964;28;20587;-87
2021/01/11 07:59:37;;;;;;;27.90;18.57;;;;;;;;;;5073912;28;20274;-86
2021/01/11 08:02:04;;;;;;;26.60;16.80;;;;;;;;;;5074856;28;20731;-87
2021/01/11 08:04:39;;;;;;;26.37;17.10;;;;;;;;;;5075033;28;20187;-87
2021/01/11 08:07:07;;;;;;;28.07;17.60;;;;;;;;;;5074801;28;20519;-87
2021/01/11 08:09:33;;;;;;;25.83;16.20;;;;;;;;;;5074488;28;20191;-87
2021/01/11 08:12:09;;;;;;;23.50;15.67;;;;;;;;;;5074716;28;20221;-87
2021/01/11 08:14:34;;;;;;;23.27;16.47;;;;;;;;;;5074693;28;20178;-87
2021/01/11 08:17:00;;;;;;;24.27;16.23;;;;;;;;;;5073270;28;20202;-88
2021/01/11 08:19:25;;;;;;;26.03;17.90;;;;;;;;;;5074549;28;20193;-87
2021/01/11 08:21:58;;;;;;;31.53;20.07;;;;;;;;;;5074204;28;20195;-87
2021/01/11 08:24:23;;;;;;;35.20;21.53;;;;;;;;;;5074783;28;20179;-87
2021/01/11 08:26:50;;;;;;;33.13;19.43;;;;;;;;;;5073840;28;20178;-87
2021/01/11 08:29:15;;;;;;;43.73;26.97;;;;;;;;;;5071769;28;20171;-87
2021/01/11 08:31:42;;;;;;;46.03;25.27;;;;;;;;;;5091410;28;20223;-87
2021/01/11 08:34:08;;;;;;;43.57;25.47;;;;;;;;;;5094434;28;20162;-86
2021/01/11 08:36:33;;;;;;;43.60;24.03;;;;;;;;;;5076574;28;20182;-87
2021/01/11 08:39:07;;;;;;;28.60;17.33;;;;;;;;;;5074199;28;20167;-86
2021/01/11 08:41:33;;;;;;;30.73;17.30;;;;;;;;;;5073472;28;20657;-87
2021/01/11 08:43:58;;;;;;;27.73;16.83;;;;;;;;;;5073749;28;20640;-86
2021/01/11 08:46:23;;;;;;;32.80;20.37;;;;;;;;;;5073639;28;20175;-86
2021/01/11 08:48:49;;;;;;;27.43;17.47;;;;;;;;;;5073711;28;20175;-87
2021/01/11 08:51:23;;;;;;;33.63;18.27;;;;;;;;;;5073613;28;20254;-86
2021/01/11 08:53:48;;;;;;;31.10;18.80;;;;;;;;;;5073476;28;20182;-87
2021/01/11 08:56:15;;;;;;;24.20;16.53;;;;;;;;;;5073748;28;20174;-86
2021/01/11 08:58:48;;;;;;;28.30;17.60;;;;;;;;;;5074065;28;20675;-86
2021/01/11 09:01:21;;;;;;;30.83;18.87;;;;;;;;;;5073193;28;20227;-86
2021/01/11 09:03:50;;;;;;;33.57;19.30;;;;;;;;;;5067164;28;20188;-86
2021/01/11 09:06:34;;;;;;;32.77;20.03;;;;;;;;;;5073136;28;20211;-87
2021/01/11 09:09:05;;;;;;;28.13;17.97;;;;;;;;;;5073184;28;20175;-87
2021/01/11 09:11:30;;;;;;;27.33;16.93;;;;;;;;;;5071976;28;20583;-86
2021/01/11 09:14:05;;;;;;;28.60;18.23;;;;;;;;;;5086268;28;20205;-86
2021/01/11 09:16:31;;;;;;;34.10;18.90;;;;;;;;;;5092231;28;20184;-87
2021/01/11 09:19:04;;;;;;;33.00;20.07;;;;;;;;;;5093636;28;20171;-87
2021/01/11 09:21:29;;;;;;;29.00;18.60;;;;;;;;;;5093324;28;20194;-87
2021/01/11 09:23:54;;;;;;;29.00;18.87;;;;;;;;;;5093520;28;20178;-87
2021/01/11 09:26:19;;;;;;;33.20;20.43;;;;;;;;;;5092957;28;20527;-87
2021/01/11 09:28:45;;;;;;;34.27;22.13;;;;;;;;;;5093201;28;20174;-87
2021/01/11 09:31:10;;;;;;;30.30;20.20;;;;;;;;;;5092790;28;20632;-87
2021/01/11 09:33:35;;;;;;;30.77;21.33;;;;;;;;;;5093123;28;20170;-87
2021/01/11 09:36:01;;;;;;;30.47;18.90;;;;;;;;;;5093097;28;20170;-87
2021/01/11 09:38:28;;;;;;;29.30;18.23;;;;;;;;;;5092621;28;20620;-87
2021/01/11 09:40:54;;;;;;;27.67;19.37;;;;;;;;;;5091482;28;20629;-87
2021/01/11 09:43:19;;;;;;;31.90;19.77;;;;;;;;;;5092894;28;20317;-87
2021/01/11 09:45:44;;;;;;;30.17;18.47;;;;;;;;;;5093144;28;20194;-86
2021/01/11 09:48:10;;;;;;;33.30;21.27;;;;;;;;;;5091793;28;20179;-87
2021/01/11 09:50:38;;;;;;;29.17;19.03;;;;;;;;;;5091775;28;20189;-88
2021/01/11 09:53:05;;;;;;;31.00;18.90;;;;;;;;;;5092747;28;20534;-87
2021/01/11 09:55:30;;;;;;;31.20;19.40;;;;;;;;;;5093042;28;20185;-87
2021/01/11 09:57:55;;;;;;;27.63;18.23;;;;;;;;;;5092735;28;20162;-87
2021/01/11 10:00:21;;;;;;;32.83;19.10;;;;;;;;;;5091472;28;20635;-88
2021/01/11 10:02:47;;;;;;;30.13;18.63;;;;;;;;;;5091690;28;20689;-87
2021/01/11 10:05:12;;;;;;;27.27;18.10;;;;;;;;;;5093049;28;20197;-87
2021/01/11 10:07:38;;;;;;;28.13;18.40;;;;;;;;;;5091617;28;20186;-87
2021/01/11 10:10:03;;;;;;;34.87;21.63;;;;;;;;;;5092973;28;20852;-86
2021/01/11 10:12:29;;;;;;;37.00;21.97;;;;;;;;;;5092023;28;20178;-87
2021/01/11 10:14:54;;;;;;;38.20;22.57;;;;;;;;;;5090729;28;20171;-86
2021/01/11 10:17:20;;;;;;;33.33;21.10;;;;;;;;;;5090594;28;20261;-87
2021/01/11 10:19:45;;;;;;;31.17;20.50;;;;;;;;;;5090585;28;20181;-87
2021/01/11 10:22:10;;;;;;;30.37;18.60;;;;;;;;;;5091278;28;20285;-87
2021/01/11 10:24:35;;;;;;;32.23;19.63;;;;;;;;;;5092902;28;20613;-87
2021/01/11 10:27:01;;;;;;;37.43;21.93;;;;;;;;;;5092740;28;20202;-86
2021/01/11 10:29:27;;;;;;;29.03;17.33;;;;;;;;;;5076842;28;20179;-86
2021/01/11 10:31:52;;;;;;;29.07;17.57;;;;;;;;;;5071916;28;20532;-86
2021/01/11 10:34:18;;;;;;;24.30;15.93;;;;;;;;;;5072193;28;20171;-86
2021/01/11 10:36:45;;;;;;;25.17;16.03;;;;;;;;;;5071094;28;20187;-86
2021/01/11 10:39:11;;;;;;;26.93;17.60;;;;;;;;;;5072447;28;20168;-86
2021/01/11 10:41:39;;;;;;;28.63;17.33;;;;;;;;;;5072526;28;20200;-86
2021/01/11 10:44:05;;;;;;;33.00;19.27;;;;;;;;;;5075373;28;20179;-86
2021/01/11 10:46:31;;;;;;;31.40;19.80;;;;;;;;;;5076146;28;20176;-86
2021/01/11 10:48:56;;;;;;;29.33;18.47;;;;;;;;;;5076112;28;20261;-87
2021/01/11 10:51:23;;;;;;;26.30;16.73;;;;;;;;;;5075765;28;20187;-87
2021/01/11 10:53:49;;;;;;;28.40;17.20;;;;;;;;;;5064320;28;20706;-86
2021/01/11 10:56:14;;;;;;;28.67;15.67;;;;;;;;;;5067789;28;20201;-87
2021/01/11 10:58:39;;;;;;;23.97;15.37;;;;;;;;;;5075543;28;20183;-87
2021/01/11 11:01:06;;;;;;;26.33;15.67;;;;;;;;;;5074288;28;20258;-87
2021/01/11 11:03:32;;;;;;;24.77;16.47;;;;;;;;;;5076225;28;20175;-86
2021/01/11 11:05:57;;;;;;;26.97;17.77;;;;;;;;;;5078826;28;20167;-87
2021/01/11 11:08:22;;;;;;;26.37;15.43;;;;;;;;;;5096154;28;20166;-87
2021/01/11 11:10:48;;;;;;;24.63;14.97;;;;;;;;;;5094707;28;20213;-87
2021/01/11 11:13:13;;;;;;;23.93;13.93;;;;;;;;;;5095727;28;20579;-87
2021/01/11 11:15:42;;;;;;;26.27;16.30;;;;;;;;;;5094551;28;20181;-87
2021/01/11 11:18:07;;;;;;;31.60;16.90;;;;;;;;;;5095990;28;20178;-87
2021/01/11 11:20:32;;;;;;;25.33;15.47;;;;;;;;;;5096260;28;20218;-87
2021/01/11 11:22:58;;;;;;;23.80;14.53;;;;;;;;;;5080243;28;20583;-87
2021/01/11 11:25:23;;;;;;;25.73;14.47;;;;;;;;;;5075847;28;20175;-86
2021/01/11 11:27:48;;;;;;;26.53;15.73;;;;;;;;;;5064886;28;20627;-87
2021/01/11 11:30:14;;;;;;;25.53;15.43;;;;;;;;;;5060214;28;20215;-86
2021/01/11 11:32:46;;;;;;;25.87;15.97;;;;;;;;;;5075438;28;20178;-87
2021/01/11 11:35:12;;;;;;;26.43;16.97;;;;;;;;;;5075408;28;20163;-86
2021/01/11 11:37:38;;;;;;;26.43;16.80;;;;;;;;;;5071949;28;20270;-86
2021/01/11 11:40:03;;;;;;;30.13;17.73;;;;;;;;;;5073856;28;21035;-86
2021/01/11 11:42:35;;;;;;;24.87;15.90;;;;;;;;;;5075100;28;20637;-87
2021/01/11 11:45:01;;;;;;;26.97;16.67;;;;;;;;;;5075306;28;20186;-86
2021/01/11 11:47:33;;;;;;;29.53;17.37;;;;;;;;;;5074726;28;20172;-86
2021/01/11 11:49:59;;;;;;;26.57;16.37;;;;;;;;;;5075364;28;20230;-86
2021/01/11 11:52:24;;;;;;;26.53;16.57;;;;;;;;;;5075105;28;20257;-86
2021/01/11 11:54:49;;;;;;;28.87;17.37;;;;;;;;;;5073705;28;20191;-86
2021/01/11 11:57:15;;;;;;;26.80;17.13;;;;;;;;;;5072868;28;20172;-87
2021/01/11 11:59:40;;;;;;;42.00;24.90;;;;;;;;;;5085793;28;20651;-86
2021/01/11 12:02:10;;;;;;;29.07;18.03;;;;;;;;;;5073349;28;20339;-87
2021/01/11 12:04:35;;;;;;;27.80;16.53;;;;;;;;;;5073593;28;20178;-87
2021/01/11 12:07:01;;;;;;;26.07;17.87;;;;;;;;;;5073277;28;20537;-86
2021/01/11 12:09:26;;;;;;;36.87;18.93;;;;;;;;;;5072637;28;20221;-86
2021/01/11 12:11:53;;;;;;;28.40;17.03;;;;;;;;;;5073349;28;20518;-87
2021/01/11 12:14:19;;;;;;;28.73;17.27;;;;;;;;;;5073091;28;20179;-87
2021/01/11 12:16:48;;;;;;;28.13;17.30;;;;;;;;;;5071454;28;20185;-87
2021/01/11 12:19:13;;;;;;;25.03;15.30;;;;;;;;;;5072593;28;20187;-86
2021/01/11 12:21:38;;;;;;;28.97;17.93;;;;;;;;;;5072455;28;20206;-86
2021/01/11 12:24:04;;;;;;;29.47;19.27;;;;;;;;;;5072539;28;20175;-86
2021/01/11 12:26:45;;;;;;;41.47;22.90;;;;;;;;;;5072702;28;20175;-86
2021/01/11 12:29:12;;;;;;;29.57;17.70;;;;;;;;;;5083445;28;20294;-86
2021/01/11 12:31:37;;;;;;;25.47;16.97;;;;;;;;;;5072695;28;20629;-86
2021/01/11 12:34:04;;;;;;;26.80;16.97;;;;;;;;;;5072208;28;20182;-87
2021/01/11 12:36:30;;;;;;;27.60;18.00;;;;;;;;;;5072503;28;20185;-86
2021/01/11 12:38:56;;;;;;;31.93;18.67;;;;;;;;;;5072297;28;20199;-87
2021/01/11 12:41:24;;;;;;;29.83;18.20;;;;;;;;;;5072523;28;20238;-87
2021/01/11 12:43:50;;;;;;;33.60;19.00;;;;;;;;;;5070875;28;20621;-86
2021/01/11 12:46:17;;;;;;;32.23;19.60;;;;;;;;;;5071885;28;20179;-86
2021/01/11 12:48:42;;;;;;;30.20;18.23;;;;;;;;;;5072051;28;20629;-86
2021/01/11 12:51:11;;;;;;;32.13;18.20;;;;;;;;;;5072557;28;20199;-87
2021/01/11 12:53:36;;;;;;;28.97;18.37;;;;;;;;;;5072217;28;20195;-86
2021/01/11 12:56:09;;;;;;;28.87;16.90;;;;;;;;;;5071829;28;20194;-86
2021/01/11 12:58:34;;;;;;;35.47;20.40;;;;;;;;;;5072148;28;20163;-86
2021/01/11 13:01:00;;;;;;;38.33;22.27;;;;;;;;;;5071448;28;20644;-86
2021/01/11 13:03:25;;;;;;;33.73;19.43;;;;;;;;;;5071949;28;20174;-86
2021/01/11 13:05:50;;;;;;;39.63;21.47;;;;;;;;;;5071072;28;20167;-86
2021/01/11 13:08:16;;;;;;;47.83;24.63;;;;;;;;;;5071775;28;20167;-86
2021/01/11 13:10:42;;;;;;;46.07;24.77;;;;;;;;;;5073059;28;20171;-87
2021/01/11 13:13:07;;;;;;;39.20;22.70;;;;;;;;;;5073131;28;20714;-86
2021/01/11 13:15:33;;;;;;;33.43;20.47;;;;;;;;;;5073093;28;20258;-86
2021/01/11 13:17:58;;;;;;;32.47;19.70;;;;;;;;;;5073043;28;20167;-87
2021/01/11 13:20:23;;;;;;;34.10;21.43;;;;;;;;;;5072985;28;20250;-86
2021/01/11 13:22:48;;;;;;;49.53;25.43;;;;;;;;;;5071899;28;20179;-87
2021/01/11 13:25:14;;;;;;;35.67;20.47;;;;;;;;;;5073218;28;20175;-86
2021/01/11 13:27:41;;;;;;;31.23;19.60;;;;;;;;;;5072896;28;20262;-87
2021/01/11 13:30:07;;;;;;;33.67;17.17;;;;;;;;;;5073414;28;20545;-87
2021/01/11 13:32:32;;;;;;;27.73;18.23;;;;;;;;;;5073105;28;20179;-87
2021/01/11 13:34:57;;;;;;;29.80;18.07;;;;;;;;;;5073111;28;20195;-87
2021/01/11 13:37:23;;;;;;;30.53;18.17;;;;;;;;;;5072801;28;20625;-86
2021/01/11 13:39:48;;;;;;;36.53;21.03;;;;;;;;;;5071536;28;20174;-87
2021/01/11 13:42:13;;;;;;;36.97;22.97;;;;;;;;;;5070126;28;20216;-87
2021/01/11 13:44:39;;;;;;;38.67;22.40;;;;;;;;;;5071411;28;20194;-87
2021/01/11 13:47:05;;;;;;;31.00;19.73;;;;;;;;;;5071356;28;20180;-87
2021/01/11 13:49:30;;;;;;;33.40;19.37;;;;;;;;;;5069118;28;20962;-87
2021/01/11 13:51:55;;;;;;;30.83;18.93;;;;;;;;;;5071949;28;20167;-87
2021/01/11 13:54:21;;;;;;;34.13;20.57;;;;;;;;;;5072518;28;20657;-87
2021/01/11 13:56:46;;;;;;;32.47;20.50;;;;;;;;;;5071449;28;20171;-87
2021/01/11 13:59:12;;;;;;;30.37;18.93;;;;;;;;;;5071553;28;20202;-87
2021/01/11 14:01:40;;;;;;;34.03;20.70;;;;;;;;;;5070664;28;20292;-86
2021/01/11 14:04:06;;;;;;;38.37;21.10;;;;;;;;;;5072609;28;20221;-87
2021/01/11 14:06:31;;;;;;;41.30;23.03;;;;;;;;;;5072758;28;20167;-87
2021/01/11 14:08:57;;;;;;;49.67;25.07;;;;;;;;;;5072521;28;20199;-87
2021/01/11 14:11:26;;;;;;;68.00;35.97;;;;;;;;;;5072539;28;20533;-86
2021/01/11 14:13:52;;;;;;;64.27;34.03;;;;;;;;;;5072925;28;20179;-86
2021/01/11 14:16:18;;;;;;;62.20;33.93;;;;;;;;;;5072599;28;20167;-87
2021/01/11 14:18:44;;;;;;;61.57;30.47;;;;;;;;;;5076916;28;20743;-88